sensor_id;sensor_type;location;lat;lon;timestamp;temperature;humidity
68215;DHT22;55036;52.138;5.236;2024-01-30T00:01:58;9.40;92.40
68215;DHT22;55036;52.138;5.236;2024-01-30T00:04:25;9.40;92.40
68215;DHT22;55036;52.138;5.236;2024-01-30T00:06:52;9.40;92.50
68215;DHT22;55036;52.138;5.236;2024-01-30T00:09:19;9.40;92.50
68215;DHT22;55036;52.138;5.236;2024-01-30T00:11:46;9.40;92.50
68215;DHT22;55036;52.138;5.236;2024-01-30T00:14:13;9.40;92.40
68215;DHT22;55036;52.138;5.236;2024-01-30T00:16:40;9.40;92.50
68215;DHT22;55036;52.138;5.236;2024-01-30T00:19:07;9.40;92.70
68215;DHT22;55036;52.138;5.236;2024-01-30T00:21:35;9.40;92.70
68215;DHT22;55036;52.138;5.236;2024-01-30T00:24:02;9.40;92.70
68215;DHT22;55036;52.138;5.236;2024-01-30T00:26:29;9.40;92.50
68215;DHT22;55036;52.138;5.236;2024-01-30T00:28:55;9.50;92.40
68215;DHT22;55036;52.138;5.236;2024-01-30T00:31:22;9.40;92.40
68215;DHT22;55036;52.138;5.236;2024-01-30T00:33:49;9.40;92.50
68215;DHT22;55036;52.138;5.236;2024-01-30T00:36:16;9.50;92.50
68215;DHT22;55036;52.138;5.236;2024-01-30T00:38:42;9.40;92.40
68215;DHT22;55036;52.138;5.236;2024-01-30T00:41:09;9.40;92.70
68215;DHT22;55036;52.138;5.236;2024-01-30T00:43:36;9.40;92.50
68215;DHT22;55036;52.138;5.236;2024-01-30T00:46:03;9.40;92.50
68215;DHT22;55036;52.138;5.236;2024-01-30T00:48:30;9.40;92.50
68215;DHT22;55036;52.138;5.236;2024-01-30T00:50:57;9.40;92.60
68215;DHT22;55036;52.138;5.236;2024-01-30T00:53:23;9.40;92.80
68215;DHT22;55036;52.138;5.236;2024-01-30T00:55:50;9.40;92.50
68215;DHT22;55036;52.138;5.236;2024-01-30T00:58:17;9.40;92.70
68215;DHT22;55036;52.138;5.236;2024-01-30T01:00:46;9.40;92.70
68215;DHT22;55036;52.138;5.236;2024-01-30T01:03:13;9.40;92.70
68215;DHT22;55036;52.138;5.236;2024-01-30T01:05:40;9.40;92.60
68215;DHT22;55036;52.138;5.236;2024-01-30T01:08:07;9.40;92.60
68215;DHT22;55036;52.138;5.236;2024-01-30T01:10:35;9.40;92.70
68215;DHT22;55036;52.138;5.236;2024-01-30T01:13:02;9.30;92.70
68215;DHT22;55036;52.138;5.236;2024-01-30T01:15:29;9.30;92.70
68215;DHT22;55036;52.138;5.236;2024-01-30T01:17:56;9.30;92.80
68215;DHT22;55036;52.138;5.236;2024-01-30T01:20:23;9.30;92.70
68215;DHT22;55036;52.138;5.236;2024-01-30T01:22:50;9.30;92.60
68215;DHT22;55036;52.138;5.236;2024-01-30T01:25:16;9.30;92.70
68215;DHT22;55036;52.138;5.236;2024-01-30T01:27:43;9.30;92.80
68215;DHT22;55036;52.138;5.236;2024-01-30T01:30:17;9.30;92.70
68215;DHT22;55036;52.138;5.236;2024-01-30T01:32:50;9.30;92.90
68215;DHT22;55036;52.138;5.236;2024-01-30T01:35:25;9.30;92.90
68215;DHT22;55036;52.138;5.236;2024-01-30T01:37:53;9.30;92.90
68215;DHT22;55036;52.138;5.236;2024-01-30T01:40:25;9.30;92.80
68215;DHT22;55036;52.138;5.236;2024-01-30T01:42:54;9.30;92.60
68215;DHT22;55036;52.138;5.236;2024-01-30T01:45:21;9.20;92.70
68215;DHT22;55036;52.138;5.236;2024-01-30T01:47:51;9.20;92.80
68215;DHT22;55036;52.138;5.236;2024-01-30T01:50:19;9.20;92.70
68215;DHT22;55036;52.138;5.236;2024-01-30T01:52:50;9.10;92.90
68215;DHT22;55036;52.138;5.236;2024-01-30T01:55:20;9.20;92.70
68215;DHT22;55036;52.138;5.236;2024-01-30T01:57:53;9.20;92.70
68215;DHT22;55036;52.138;5.236;2024-01-30T02:00:20;9.20;92.70
68215;DHT22;55036;52.138;5.236;2024-01-30T02:02:47;9.20;92.60
68215;DHT22;55036;52.138;5.236;2024-01-30T02:05:15;9.20;92.60
68215;DHT22;55036;52.138;5.236;2024-01-30T02:07:43;9.10;92.70
68215;DHT22;55036;52.138;5.236;2024-01-30T02:10:10;9.20;92.50
68215;DHT22;55036;52.138;5.236;2024-01-30T02:12:37;9.20;92.50
68215;DHT22;55036;52.138;5.236;2024-01-30T02:15:05;9.10;92.60
68215;DHT22;55036;52.138;5.236;2024-01-30T02:17:32;9.10;92.50
68215;DHT22;55036;52.138;5.236;2024-01-30T02:19:59;9.10;92.60
68215;DHT22;55036;52.138;5.236;2024-01-30T02:22:26;9.10;92.60
68215;DHT22;55036;52.138;5.236;2024-01-30T02:24:54;9.00;93.20
68215;DHT22;55036;52.138;5.236;2024-01-30T02:27:20;9.10;92.70
68215;DHT22;55036;52.138;5.236;2024-01-30T02:29:47;9.00;92.80
68215;DHT22;55036;52.138;5.236;2024-01-30T02:32:14;9.10;92.70
68215;DHT22;55036;52.138;5.236;2024-01-30T02:34:40;9.10;92.50
68215;DHT22;55036;52.138;5.236;2024-01-30T02:37:07;9.10;92.50
68215;DHT22;55036;52.138;5.236;2024-01-30T02:39:34;9.00;92.60
68215;DHT22;55036;52.138;5.236;2024-01-30T02:42:01;9.00;92.70
68215;DHT22;55036;52.138;5.236;2024-01-30T02:44:27;9.10;92.50
68215;DHT22;55036;52.138;5.236;2024-01-30T02:46:55;9.00;92.50
68215;DHT22;55036;52.138;5.236;2024-01-30T02:49:22;9.00;92.50
68215;DHT22;55036;52.138;5.236;2024-01-30T02:51:49;9.00;92.70
68215;DHT22;55036;52.138;5.236;2024-01-30T02:54:16;9.00;92.70
68215;DHT22;55036;52.138;5.236;2024-01-30T02:56:43;9.10;92.70
68215;DHT22;55036;52.138;5.236;2024-01-30T02:59:09;9.10;92.50
68215;DHT22;55036;52.138;5.236;2024-01-30T03:01:43;9.10;92.40
68215;DHT22;55036;52.138;5.236;2024-01-30T03:04:11;9.10;92.40
68215;DHT22;55036;52.138;5.236;2024-01-30T03:06:38;9.10;92.30
68215;DHT22;55036;52.138;5.236;2024-01-30T03:09:05;9.00;92.40
68215;DHT22;55036;52.138;5.236;2024-01-30T03:11:31;9.00;92.40
68215;DHT22;55036;52.138;5.236;2024-01-30T03:13:58;9.00;92.30
68215;DHT22;55036;52.138;5.236;2024-01-30T03:16:25;8.90;92.60
68215;DHT22;55036;52.138;5.236;2024-01-30T03:18:52;8.90;92.60
68215;DHT22;55036;52.138;5.236;2024-01-30T03:21:19;9.00;92.50
68215;DHT22;55036;52.138;5.236;2024-01-30T03:23:46;9.00;92.50
68215;DHT22;55036;52.138;5.236;2024-01-30T03:26:12;9.00;92.40
68215;DHT22;55036;52.138;5.236;2024-01-30T03:28:41;9.00;92.50
68215;DHT22;55036;52.138;5.236;2024-01-30T03:31:08;9.00;92.40
68215;DHT22;55036;52.138;5.236;2024-01-30T03:33:36;9.00;92.50
68215;DHT22;55036;52.138;5.236;2024-01-30T03:36:04;9.10;92.50
68215;DHT22;55036;52.138;5.236;2024-01-30T03:38:31;9.10;92.50
68215;DHT22;55036;52.138;5.236;2024-01-30T03:40:59;9.00;92.50
68215;DHT22;55036;52.138;5.236;2024-01-30T03:43:26;9.10;92.50
68215;DHT22;55036;52.138;5.236;2024-01-30T03:45:53;9.10;92.40
68215;DHT22;55036;52.138;5.236;2024-01-30T03:48:21;9.00;92.40
68215;DHT22;55036;52.138;5.236;2024-01-30T03:50:48;9.00;92.70
68215;DHT22;55036;52.138;5.236;2024-01-30T03:53:14;9.00;92.70
68215;DHT22;55036;52.138;5.236;2024-01-30T03:55:41;9.00;92.60
68215;DHT22;55036;52.138;5.236;2024-01-30T03:58:08;9.10;92.60
68215;DHT22;55036;52.138;5.236;2024-01-30T04:00:34;9.10;92.60
68215;DHT22;55036;52.138;5.236;2024-01-30T04:03:02;9.10;92.60
68215;DHT22;55036;52.138;5.236;2024-01-30T04:05:29;9.10;92.60
68215;DHT22;55036;52.138;5.236;2024-01-30T04:07:55;9.10;92.80
68215;DHT22;55036;52.138;5.236;2024-01-30T04:10:23;9.10;92.70
68215;DHT22;55036;52.138;5.236;2024-01-30T04:12:49;9.10;92.60
68215;DHT22;55036;52.138;5.236;2024-01-30T04:15:17;9.10;92.60
68215;DHT22;55036;52.138;5.236;2024-01-30T04:17:44;9.20;92.70
68215;DHT22;55036;52.138;5.236;2024-01-30T04:20:14;9.20;92.70
68215;DHT22;55036;52.138;5.236;2024-01-30T04:22:45;9.20;92.60
68215;DHT22;55036;52.138;5.236;2024-01-30T04:25:13;9.20;92.40
68215;DHT22;55036;52.138;5.236;2024-01-30T04:27:40;9.20;92.80
68215;DHT22;55036;52.138;5.236;2024-01-30T04:30:07;9.20;92.60
68215;DHT22;55036;52.138;5.236;2024-01-30T04:32:35;9.20;92.70
68215;DHT22;55036;52.138;5.236;2024-01-30T04:35:03;9.20;92.70
68215;DHT22;55036;52.138;5.236;2024-01-30T04:37:34;9.20;92.70
68215;DHT22;55036;52.138;5.236;2024-01-30T04:40:01;9.20;92.80
68215;DHT22;55036;52.138;5.236;2024-01-30T04:42:28;9.20;92.60
68215;DHT22;55036;52.138;5.236;2024-01-30T04:44:54;9.20;92.90
68215;DHT22;55036;52.138;5.236;2024-01-30T04:47:21;9.20;92.90
68215;DHT22;55036;52.138;5.236;2024-01-30T04:49:48;9.20;93.00
68215;DHT22;55036;52.138;5.236;2024-01-30T04:52:14;9.20;93.10
68215;DHT22;55036;52.138;5.236;2024-01-30T04:54:42;9.20;93.00
68215;DHT22;55036;52.138;5.236;2024-01-30T04:57:09;9.20;92.90
68215;DHT22;55036;52.138;5.236;2024-01-30T04:59:38;9.20;92.90
68215;DHT22;55036;52.138;5.236;2024-01-30T05:02:05;9.20;92.90
68215;DHT22;55036;52.138;5.236;2024-01-30T05:04:32;9.20;93.00
68215;DHT22;55036;52.138;5.236;2024-01-30T05:06:59;9.30;92.90
68215;DHT22;55036;52.138;5.236;2024-01-30T05:09:26;9.30;92.90
68215;DHT22;55036;52.138;5.236;2024-01-30T05:11:53;9.30;92.90
68215;DHT22;55036;52.138;5.236;2024-01-30T05:14:19;9.30;92.90
68215;DHT22;55036;52.138;5.236;2024-01-30T05:16:46;9.30;92.70
68215;DHT22;55036;52.138;5.236;2024-01-30T05:19:14;9.30;92.90
68215;DHT22;55036;52.138;5.236;2024-01-30T05:21:41;9.30;92.90
68215;DHT22;55036;52.138;5.236;2024-01-30T05:24:08;9.40;92.90
68215;DHT22;55036;52.138;5.236;2024-01-30T05:26:36;9.40;92.80
68215;DHT22;55036;52.138;5.236;2024-01-30T05:29:03;9.40;92.90
68215;DHT22;55036;52.138;5.236;2024-01-30T05:31:30;9.40;92.80
68215;DHT22;55036;52.138;5.236;2024-01-30T05:33:57;9.40;92.80
68215;DHT22;55036;52.138;5.236;2024-01-30T05:36:24;9.40;93.10
68215;DHT22;55036;52.138;5.236;2024-01-30T05:38:51;9.40;93.10
68215;DHT22;55036;52.138;5.236;2024-01-30T05:41:18;9.40;93.10
68215;DHT22;55036;52.138;5.236;2024-01-30T05:43:44;9.50;92.90
68215;DHT22;55036;52.138;5.236;2024-01-30T05:46:11;9.50;93.00
68215;DHT22;55036;52.138;5.236;2024-01-30T05:48:38;9.50;92.90
68215;DHT22;55036;52.138;5.236;2024-01-30T05:51:05;9.50;93.00
68215;DHT22;55036;52.138;5.236;2024-01-30T05:53:33;9.50;93.00
68215;DHT22;55036;52.138;5.236;2024-01-30T05:56:03;9.60;92.70
68215;DHT22;55036;52.138;5.236;2024-01-30T05:58:30;9.60;92.90
68215;DHT22;55036;52.138;5.236;2024-01-30T06:01:00;9.60;92.80
68215;DHT22;55036;52.138;5.236;2024-01-30T06:03:27;9.60;92.90
68215;DHT22;55036;52.138;5.236;2024-01-30T06:05:54;9.60;93.10
68215;DHT22;55036;52.138;5.236;2024-01-30T06:08:20;9.60;92.90
68215;DHT22;55036;52.138;5.236;2024-01-30T06:10:47;9.60;93.10
68215;DHT22;55036;52.138;5.236;2024-01-30T06:13:14;9.60;93.10
68215;DHT22;55036;52.138;5.236;2024-01-30T06:15:41;9.70;93.00
68215;DHT22;55036;52.138;5.236;2024-01-30T06:18:08;9.70;93.00
68215;DHT22;55036;52.138;5.236;2024-01-30T06:20:35;9.70;92.90
68215;DHT22;55036;52.138;5.236;2024-01-30T06:23:02;9.70;92.90
68215;DHT22;55036;52.138;5.236;2024-01-30T06:25:29;9.80;92.80
68215;DHT22;55036;52.138;5.236;2024-01-30T06:27:56;9.70;93.10
68215;DHT22;55036;52.138;5.236;2024-01-30T06:30:22;9.80;93.00
68215;DHT22;55036;52.138;5.236;2024-01-30T06:32:49;9.80;92.90
68215;DHT22;55036;52.138;5.236;2024-01-30T06:35:16;9.60;93.10
68215;DHT22;55036;52.138;5.236;2024-01-30T06:37:44;9.70;93.10
68215;DHT22;55036;52.138;5.236;2024-01-30T06:40:11;9.70;92.90
68215;DHT22;55036;52.138;5.236;2024-01-30T06:42:38;9.70;93.00
68215;DHT22;55036;52.138;5.236;2024-01-30T06:45:05;9.70;93.20
68215;DHT22;55036;52.138;5.236;2024-01-30T06:47:33;9.70;93.00
68215;DHT22;55036;52.138;5.236;2024-01-30T06:50:00;9.80;93.00
68215;DHT22;55036;52.138;5.236;2024-01-30T06:52:28;9.80;93.00
68215;DHT22;55036;52.138;5.236;2024-01-30T06:54:55;9.80;92.90
68215;DHT22;55036;52.138;5.236;2024-01-30T06:57:22;9.80;93.20
68215;DHT22;55036;52.138;5.236;2024-01-30T06:59:49;9.80;93.00
68215;DHT22;55036;52.138;5.236;2024-01-30T07:02:15;9.80;93.10
68215;DHT22;55036;52.138;5.236;2024-01-30T07:04:42;9.90;92.90
68215;DHT22;55036;52.138;5.236;2024-01-30T07:07:13;9.90;93.10
68215;DHT22;55036;52.138;5.236;2024-01-30T07:09:41;9.90;93.00
68215;DHT22;55036;52.138;5.236;2024-01-30T07:12:08;9.90;93.10
68215;DHT22;55036;52.138;5.236;2024-01-30T07:14:35;9.90;93.60
68215;DHT22;55036;52.138;5.236;2024-01-30T07:17:02;9.90;93.20
68215;DHT22;55036;52.138;5.236;2024-01-30T07:19:29;9.90;93.30
68215;DHT22;55036;52.138;5.236;2024-01-30T07:21:56;10.00;93.30
68215;DHT22;55036;52.138;5.236;2024-01-30T07:24:23;10.00;93.30
68215;DHT22;55036;52.138;5.236;2024-01-30T07:26:49;10.00;93.30
68215;DHT22;55036;52.138;5.236;2024-01-30T07:29:16;10.00;93.20
68215;DHT22;55036;52.138;5.236;2024-01-30T07:31:43;10.00;93.70
68215;DHT22;55036;52.138;5.236;2024-01-30T07:34:09;10.00;93.30
68215;DHT22;55036;52.138;5.236;2024-01-30T07:36:37;10.10;93.20
68215;DHT22;55036;52.138;5.236;2024-01-30T07:39:05;10.10;93.20
68215;DHT22;55036;52.138;5.236;2024-01-30T07:41:32;10.10;93.30
68215;DHT22;55036;52.138;5.236;2024-01-30T07:43:59;10.10;93.30
68215;DHT22;55036;52.138;5.236;2024-01-30T07:46:26;10.20;93.50
68215;DHT22;55036;52.138;5.236;2024-01-30T07:48:53;10.20;93.40
68215;DHT22;55036;52.138;5.236;2024-01-30T07:51:21;10.10;93.50
68215;DHT22;55036;52.138;5.236;2024-01-30T07:53:54;10.20;93.50
68215;DHT22;55036;52.138;5.236;2024-01-30T07:56:21;10.20;93.60
68215;DHT22;55036;52.138;5.236;2024-01-30T07:58:48;10.30;93.50
68215;DHT22;55036;52.138;5.236;2024-01-30T08:01:15;10.30;93.50
68215;DHT22;55036;52.138;5.236;2024-01-30T08:03:42;10.40;93.50
68215;DHT22;55036;52.138;5.236;2024-01-30T08:06:09;10.40;93.70
68215;DHT22;55036;52.138;5.236;2024-01-30T08:08:36;10.40;93.70
68215;DHT22;55036;52.138;5.236;2024-01-30T08:11:04;10.50;93.60
68215;DHT22;55036;52.138;5.236;2024-01-30T08:13:31;10.60;93.40
68215;DHT22;55036;52.138;5.236;2024-01-30T08:15:58;10.60;93.40
68215;DHT22;55036;52.138;5.236;2024-01-30T08:18:25;10.60;93.50
68215;DHT22;55036;52.138;5.236;2024-01-30T08:20:51;10.60;93.20
68215;DHT22;55036;52.138;5.236;2024-01-30T08:23:18;10.70;93.40
68215;DHT22;55036;52.138;5.236;2024-01-30T08:25:45;10.70;93.30
68215;DHT22;55036;52.138;5.236;2024-01-30T08:28:12;10.70;93.40
68215;DHT22;55036;52.138;5.236;2024-01-30T08:30:39;10.80;93.30
68215;DHT22;55036;52.138;5.236;2024-01-30T08:33:06;10.80;93.70
68215;DHT22;55036;52.138;5.236;2024-01-30T08:35:33;10.90;93.50
68215;DHT22;55036;52.138;5.236;2024-01-30T08:38:00;10.90;93.30
68215;DHT22;55036;52.138;5.236;2024-01-30T08:40:27;10.90;93.60
68215;DHT22;55036;52.138;5.236;2024-01-30T08:42:55;10.90;93.70
68215;DHT22;55036;52.138;5.236;2024-01-30T08:45:22;11.00;93.70
68215;DHT22;55036;52.138;5.236;2024-01-30T08:47:49;11.00;93.80
68215;DHT22;55036;52.138;5.236;2024-01-30T08:50:16;11.10;93.50
68215;DHT22;55036;52.138;5.236;2024-01-30T08:52:43;11.10;93.60
68215;DHT22;55036;52.138;5.236;2024-01-30T08:55:12;11.20;93.50
68215;DHT22;55036;52.138;5.236;2024-01-30T08:57:40;11.30;93.60
68215;DHT22;55036;52.138;5.236;2024-01-30T09:00:07;11.30;93.50
68215;DHT22;55036;52.138;5.236;2024-01-30T09:02:35;11.40;93.30
68215;DHT22;55036;52.138;5.236;2024-01-30T09:05:03;11.50;93.00
68215;DHT22;55036;52.138;5.236;2024-01-30T09:07:30;11.50;93.30
68215;DHT22;55036;52.138;5.236;2024-01-30T09:09:57;11.50;93.10
68215;DHT22;55036;52.138;5.236;2024-01-30T09:12:24;11.60;92.90
68215;DHT22;55036;52.138;5.236;2024-01-30T09:14:51;11.60;92.90
68215;DHT22;55036;52.138;5.236;2024-01-30T09:17:17;11.60;92.90
68215;DHT22;55036;52.138;5.236;2024-01-30T09:19:46;11.50;92.90
68215;DHT22;55036;52.138;5.236;2024-01-30T09:22:13;11.60;92.70
68215;DHT22;55036;52.138;5.236;2024-01-30T09:24:40;11.50;92.90
68215;DHT22;55036;52.138;5.236;2024-01-30T09:27:07;11.50;92.90
68215;DHT22;55036;52.138;5.236;2024-01-30T09:29:34;11.50;92.90
68215;DHT22;55036;52.138;5.236;2024-01-30T09:32:04;11.60;92.80
68215;DHT22;55036;52.138;5.236;2024-01-30T09:34:32;11.60;92.80
68215;DHT22;55036;52.138;5.236;2024-01-30T09:36:59;11.60;92.90
68215;DHT22;55036;52.138;5.236;2024-01-30T09:39:29;11.60;92.90
68215;DHT22;55036;52.138;5.236;2024-01-30T09:42:16;11.60;93.00
68215;DHT22;55036;52.138;5.236;2024-01-30T09:44:45;11.70;92.90
68215;DHT22;55036;52.138;5.236;2024-01-30T09:47:14;11.70;92.80
68215;DHT22;55036;52.138;5.236;2024-01-30T09:49:43;11.70;92.70
68215;DHT22;55036;52.138;5.236;2024-01-30T09:52:11;11.80;92.60
68215;DHT22;55036;52.138;5.236;2024-01-30T09:54:38;11.80;92.60
68215;DHT22;55036;52.138;5.236;2024-01-30T09:57:06;11.80;92.70
68215;DHT22;55036;52.138;5.236;2024-01-30T09:59:33;11.80;92.40
68215;DHT22;55036;52.138;5.236;2024-01-30T10:02:00;11.90;92.60
68215;DHT22;55036;52.138;5.236;2024-01-30T10:04:27;11.90;92.50
68215;DHT22;55036;52.138;5.236;2024-01-30T10:06:54;11.90;92.40
68215;DHT22;55036;52.138;5.236;2024-01-30T10:09:21;11.90;92.60
68215;DHT22;55036;52.138;5.236;2024-01-30T10:11:49;11.90;92.60
68215;DHT22;55036;52.138;5.236;2024-01-30T10:14:18;11.90;92.40
68215;DHT22;55036;52.138;5.236;2024-01-30T10:16:46;12.00;92.50
68215;DHT22;55036;52.138;5.236;2024-01-30T10:19:13;12.10;92.50
68215;DHT22;55036;52.138;5.236;2024-01-30T10:21:40;12.10;92.30
68215;DHT22;55036;52.138;5.236;2024-01-30T10:24:07;12.20;92.20
68215;DHT22;55036;52.138;5.236;2024-01-30T10:26:34;12.20;91.60
68215;DHT22;55036;52.138;5.236;2024-01-30T10:29:01;12.20;91.90
68215;DHT22;55036;52.138;5.236;2024-01-30T10:31:27;12.30;91.80
68215;DHT22;55036;52.138;5.236;2024-01-30T10:33:54;12.30;91.60
68215;DHT22;55036;52.138;5.236;2024-01-30T10:36:40;12.30;91.20
68215;DHT22;55036;52.138;5.236;2024-01-30T10:39:11;12.30;91.30
68215;DHT22;55036;52.138;5.236;2024-01-30T10:41:43;12.20;91.50
68215;DHT22;55036;52.138;5.236;2024-01-30T10:44:11;12.20;91.50
68215;DHT22;55036;52.138;5.236;2024-01-30T10:46:39;12.20;91.50
68215;DHT22;55036;52.138;5.236;2024-01-30T10:49:10;12.10;92.00
68215;DHT22;55036;52.138;5.236;2024-01-30T10:51:38;12.20;91.70
68215;DHT22;55036;52.138;5.236;2024-01-30T10:54:06;12.20;91.60
68215;DHT22;55036;52.138;5.236;2024-01-30T10:56:33;12.20;91.70
68215;DHT22;55036;52.138;5.236;2024-01-30T10:59:01;12.20;91.50
68215;DHT22;55036;52.138;5.236;2024-01-30T11:01:28;12.20;91.30
68215;DHT22;55036;52.138;5.236;2024-01-30T11:03:56;12.30;91.30
68215;DHT22;55036;52.138;5.236;2024-01-30T11:06:25;12.30;91.20
68215;DHT22;55036;52.138;5.236;2024-01-30T11:09:06;12.30;90.90
68215;DHT22;55036;52.138;5.236;2024-01-30T11:11:56;12.30;90.50
68215;DHT22;55036;52.138;5.236;2024-01-30T11:14:29;12.30;90.40
68215;DHT22;55036;52.138;5.236;2024-01-30T11:16:59;12.30;90.30
68215;DHT22;55036;52.138;5.236;2024-01-30T11:19:27;12.40;88.60
68215;DHT22;55036;52.138;5.236;2024-01-30T11:21:54;12.40;89.70
68215;DHT22;55036;52.138;5.236;2024-01-30T11:24:24;12.50;88.50
68215;DHT22;55036;52.138;5.236;2024-01-30T11:26:58;12.40;88.20
68215;DHT22;55036;52.138;5.236;2024-01-30T11:29:27;12.20;87.30
68215;DHT22;55036;52.138;5.236;2024-01-30T11:31:56;12.10;87.50
68215;DHT22;55036;52.138;5.236;2024-01-30T11:34:23;12.00;88.00
68215;DHT22;55036;52.138;5.236;2024-01-30T11:37:03;12.00;88.40
68215;DHT22;55036;52.138;5.236;2024-01-30T11:39:32;11.90;87.20
68215;DHT22;55036;52.138;5.236;2024-01-30T11:41:59;11.80;88.10
68215;DHT22;55036;52.138;5.236;2024-01-30T11:44:26;11.70;87.10
68215;DHT22;55036;52.138;5.236;2024-01-30T11:46:53;11.70;87.70
68215;DHT22;55036;52.138;5.236;2024-01-30T11:49:20;11.80;87.20
68215;DHT22;55036;52.138;5.236;2024-01-30T11:51:48;11.80;86.30
68215;DHT22;55036;52.138;5.236;2024-01-30T11:54:17;11.80;87.10
68215;DHT22;55036;52.138;5.236;2024-01-30T11:56:44;11.90;86.20
68215;DHT22;55036;52.138;5.236;2024-01-30T11:59:11;11.80;86.30
68215;DHT22;55036;52.138;5.236;2024-01-30T12:01:38;11.80;86.00
68215;DHT22;55036;52.138;5.236;2024-01-30T12:04:05;11.60;86.20
68215;DHT22;55036;52.138;5.236;2024-01-30T12:06:37;11.50;87.00
68215;DHT22;55036;52.138;5.236;2024-01-30T12:09:04;11.50;87.20
68215;DHT22;55036;52.138;5.236;2024-01-30T12:11:31;11.40;86.90
68215;DHT22;55036;52.138;5.236;2024-01-30T12:13:58;11.40;87.60
68215;DHT22;55036;52.138;5.236;2024-01-30T12:16:26;11.20;88.20
68215;DHT22;55036;52.138;5.236;2024-01-30T12:19:00;11.10;88.50
68215;DHT22;55036;52.138;5.236;2024-01-30T12:21:29;10.90;88.60
68215;DHT22;55036;52.138;5.236;2024-01-30T12:23:57;10.90;88.40
68215;DHT22;55036;52.138;5.236;2024-01-30T12:26:24;11.00;88.00
68215;DHT22;55036;52.138;5.236;2024-01-30T12:28:55;10.90;88.40
68215;DHT22;55036;52.138;5.236;2024-01-30T12:31:26;10.90;88.10
68215;DHT22;55036;52.138;5.236;2024-01-30T12:33:54;10.90;88.10
68215;DHT22;55036;52.138;5.236;2024-01-30T12:36:22;10.90;87.80
68215;DHT22;55036;52.138;5.236;2024-01-30T12:38:50;10.90;88.00
68215;DHT22;55036;52.138;5.236;2024-01-30T12:41:17;10.80;88.10
68215;DHT22;55036;52.138;5.236;2024-01-30T12:43:44;10.80;88.00
68215;DHT22;55036;52.138;5.236;2024-01-30T12:46:11;10.80;88.40
68215;DHT22;55036;52.138;5.236;2024-01-30T12:48:37;10.90;88.20
68215;DHT22;55036;52.138;5.236;2024-01-30T12:51:04;10.90;87.30
68215;DHT22;55036;52.138;5.236;2024-01-30T12:53:31;10.90;87.30
68215;DHT22;55036;52.138;5.236;2024-01-30T12:55:58;10.90;87.20
68215;DHT22;55036;52.138;5.236;2024-01-30T12:58:25;10.90;87.20
68215;DHT22;55036;52.138;5.236;2024-01-30T13:00:53;11.00;86.70
68215;DHT22;55036;52.138;5.236;2024-01-30T13:03:21;10.90;87.00
68215;DHT22;55036;52.138;5.236;2024-01-30T13:05:48;10.90;87.20
68215;DHT22;55036;52.138;5.236;2024-01-30T13:08:15;10.90;87.10
68215;DHT22;55036;52.138;5.236;2024-01-30T13:10:42;10.80;87.30
68215;DHT22;55036;52.138;5.236;2024-01-30T13:13:11;10.70;88.10
68215;DHT22;55036;52.138;5.236;2024-01-30T13:15:46;10.80;87.80
68215;DHT22;55036;52.138;5.236;2024-01-30T13:18:13;10.70;88.50
68215;DHT22;55036;52.138;5.236;2024-01-30T13:20:40;10.70;88.60
68215;DHT22;55036;52.138;5.236;2024-01-30T13:23:06;10.60;89.30
68215;DHT22;55036;52.138;5.236;2024-01-30T13:25:33;10.60;89.30
68215;DHT22;55036;52.138;5.236;2024-01-30T13:28:00;10.60;89.50
68215;DHT22;55036;52.138;5.236;2024-01-30T13:30:27;10.60;90.00
68215;DHT22;55036;52.138;5.236;2024-01-30T13:32:54;10.70;89.80
68215;DHT22;55036;52.138;5.236;2024-01-30T13:35:21;10.70;89.80
68215;DHT22;55036;52.138;5.236;2024-01-30T13:37:48;10.60;90.40
68215;DHT22;55036;52.138;5.236;2024-01-30T13:40:15;10.50;90.70
68215;DHT22;55036;52.138;5.236;2024-01-30T13:42:43;10.30;91.30
68215;DHT22;55036;52.138;5.236;2024-01-30T13:45:10;10.30;91.40
68215;DHT22;55036;52.138;5.236;2024-01-30T13:47:37;10.30;91.30
68215;DHT22;55036;52.138;5.236;2024-01-30T13:50:05;10.30;91.50
68215;DHT22;55036;52.138;5.236;2024-01-30T13:52:33;10.20;91.70
68215;DHT22;55036;52.138;5.236;2024-01-30T13:55:10;10.20;91.80
68215;DHT22;55036;52.138;5.236;2024-01-30T13:57:37;10.20;91.90
68215;DHT22;55036;52.138;5.236;2024-01-30T14:00:05;10.30;91.30
68215;DHT22;55036;52.138;5.236;2024-01-30T14:02:33;10.30;91.60
68215;DHT22;55036;52.138;5.236;2024-01-30T14:05:00;10.30;91.90
68215;DHT22;55036;52.138;5.236;2024-01-30T14:07:27;10.20;92.40
68215;DHT22;55036;52.138;5.236;2024-01-30T14:09:54;10.20;92.60
68215;DHT22;55036;52.138;5.236;2024-01-30T14:12:20;10.20;92.50
68215;DHT22;55036;52.138;5.236;2024-01-30T14:14:47;10.20;92.70
68215;DHT22;55036;52.138;5.236;2024-01-30T14:17:14;10.20;92.70
68215;DHT22;55036;52.138;5.236;2024-01-30T14:19:41;10.10;92.90
68215;DHT22;55036;52.138;5.236;2024-01-30T14:22:07;10.10;93.30
68215;DHT22;55036;52.138;5.236;2024-01-30T14:24:34;10.10;93.50
68215;DHT22;55036;52.138;5.236;2024-01-30T14:27:01;10.00;93.70
68215;DHT22;55036;52.138;5.236;2024-01-30T14:29:28;10.00;93.70
68215;DHT22;55036;52.138;5.236;2024-01-30T14:31:55;10.10;93.70
68215;DHT22;55036;52.138;5.236;2024-01-30T14:34:22;10.10;94.00
68215;DHT22;55036;52.138;5.236;2024-01-30T14:36:49;10.00;94.10
68215;DHT22;55036;52.138;5.236;2024-01-30T14:39:15;10.00;94.40
68215;DHT22;55036;52.138;5.236;2024-01-30T14:41:42;9.90;94.90
68215;DHT22;55036;52.138;5.236;2024-01-30T14:44:09;9.90;94.90
68215;DHT22;55036;52.138;5.236;2024-01-30T14:46:37;9.80;95.30
68215;DHT22;55036;52.138;5.236;2024-01-30T14:49:03;9.80;95.60
68215;DHT22;55036;52.138;5.236;2024-01-30T14:51:33;9.80;94.90
68215;DHT22;55036;52.138;5.236;2024-01-30T14:54:00;9.90;94.60
68215;DHT22;55036;52.138;5.236;2024-01-30T14:56:27;9.90;94.60
68215;DHT22;55036;52.138;5.236;2024-01-30T14:58:54;9.90;94.70
68215;DHT22;55036;52.138;5.236;2024-01-30T15:01:21;9.80;95.20
68215;DHT22;55036;52.138;5.236;2024-01-30T15:03:48;9.80;95.60
68215;DHT22;55036;52.138;5.236;2024-01-30T15:06:18;9.70;95.90
68215;DHT22;55036;52.138;5.236;2024-01-30T15:08:45;9.70;95.80
68215;DHT22;55036;52.138;5.236;2024-01-30T15:11:11;9.80;95.50
68215;DHT22;55036;52.138;5.236;2024-01-30T15:13:39;9.80;95.50
68215;DHT22;55036;52.138;5.236;2024-01-30T15:16:05;9.80;95.40
68215;DHT22;55036;52.138;5.236;2024-01-30T15:18:33;9.80;95.50
68215;DHT22;55036;52.138;5.236;2024-01-30T15:21:00;9.90;95.20
68215;DHT22;55036;52.138;5.236;2024-01-30T15:23:26;9.70;95.80
68215;DHT22;55036;52.138;5.236;2024-01-30T15:25:53;9.70;95.80
68215;DHT22;55036;52.138;5.236;2024-01-30T15:28:33;9.70;95.90
68215;DHT22;55036;52.138;5.236;2024-01-30T15:31:00;9.70;96.00
68215;DHT22;55036;52.138;5.236;2024-01-30T15:33:27;9.70;95.90
68215;DHT22;55036;52.138;5.236;2024-01-30T15:35:55;9.70;96.00
68215;DHT22;55036;52.138;5.236;2024-01-30T15:38:22;9.70;96.00
68215;DHT22;55036;52.138;5.236;2024-01-30T15:40:48;9.60;96.40
68215;DHT22;55036;52.138;5.236;2024-01-30T15:43:15;9.60;96.30